Herentals, Belgium
Current Conditions -  °F | °C
As of 5:43 PM on Friday 24 Oct 2014 (Local Time) from EBDT Reporting Station
Overcast Overcast  
Wind Chill: 55°   Ceiling: 4100
Heat Index: 55°   Visibility: 6mi
Dew Point: 48°   Wind: 9mph
Humidity: 77%   Direction: 180°S
Pressure: 30.03"   Gusts: NA
Location:  51.18°N, 4.83°E
Report Text: EBDT 241543Z AUTO 18008KT 9999 FEW023/// BKN041/// OVC055/// 13/09 Q1017 BLU
Loading
Personal Weather Stations






























Interactive Weather Map New forecast layout! Learn more

10-Day Weather Forecast

Advertisements
Track Severe Weather on mobile